Hav Tind — OZ2071 — position and weather

sailwx.info

Track history (hours):
 
Tides and Currents Weather Stations Pressure Air Temp Water Temp Dewpoint Dewpoint Depression Visibility Wind Speed Wind Dir Waves Ship Positions

Hav Tind

Last reported at 2014-Jul-28 11:23 UTC. Time now 2014-Jul-28 12:26 UTC.
Position N 62°14' W 006°48'.

Length 60 m; draft 4 m.

Type: Cargo ship. MMSI: 231565000.

Date/timePositionNaut miles runAvg speedWind from/ knotsBaromVisibWave heightAir tempDewpointWater temp
2014-Jul-28 11:23N 62°14' W 006°48'0 0.0
2014-Jul-28 10:32N 62°14' W 006°48'0 0.0
2014-Jul-28 09:32N 62°14' W 006°48'0 0.0
2014-Jul-28 08:29N 62°14' W 006°48'0 0.0
2014-Jul-28 07:32N 62°14' W 006°48'0 0.0
2014-Jul-28 06:32N 62°14' W 006°48'0 0.0
2014-Jul-28 05:32N 62°14' W 006°48'0 0.0
2014-Jul-28 04:32N 62°14' W 006°48'0 0.0
2014-Jul-28 03:32N 62°14' W 006°48'0 0.0
2014-Jul-28 02:29N 62°14' W 006°48'0 0.0
2014-Jul-28 01:32N 62°14' W 006°48'0 0.0
2014-Jul-28 00:32N 62°14' W 006°48'0 0.0
2014-Jul-27 23:11N 62°14' W 006°48'0 0.0
2014-Jul-27 22:32N 62°14' W 006°48'0 0.0
2014-Jul-27 21:32N 62°14' W 006°48'0 0.0
2014-Jul-27 20:32N 62°14' W 006°48'0 0.0
2014-Jul-27 19:32N 62°14' W 006°48'0 0.0
2014-Jul-27 18:32N 62°14' W 006°48'0 0.0
2014-Jul-27 17:32N 62°14' W 006°48'0 0.0
2014-Jul-27 16:32N 62°14' W 006°48'0 0.0
2014-Jul-27 15:32N 62°14' W 006°48'0 0.0
2014-Jul-27 14:32N 62°14' W 006°48'0 0.0
2014-Jul-27 13:32N 62°14' W 006°48'0 0.0
2014-Jul-27 12:32N 62°14' W 006°48'0 0.0
2014-Jul-27 11:32N 62°14' W 006°48'0 0.0
2014-Jul-27 10:32N 62°14' W 006°48'0 0.0
2014-Jul-27 09:32N 62°14' W 006°48'0 0.0
2014-Jul-27 08:32N 62°14' W 006°48'0 0.0
2014-Jul-27 07:32N 62°14' W 006°48'0 0.0
2014-Jul-27 06:32N 62°14' W 006°48'0 0.0
2014-Jul-27 05:32N 62°14' W 006°48'0 0.0
2014-Jul-27 04:32N 62°14' W 006°48'0 0.0
2014-Jul-27 03:29N 62°14' W 006°48'0 0.0
2014-Jul-27 02:32N 62°14' W 006°48'0 0.0
2014-Jul-27 01:32N 62°14' W 006°48'0 0.0
2014-Jul-27 00:32N 62°14' W 006°48'0 0.0
2014-Jul-26 23:32N 62°14' W 006°48'0 0.0
2014-Jul-26 22:32N 62°14' W 006°48'0 0.0
2014-Jul-26 21:29N 62°14' W 006°48'0 0.0
2014-Jul-26 20:32N 62°14' W 006°48'0 0.0
2014-Jul-26 19:32N 62°14' W 006°48'0 0.0
2014-Jul-26 18:32N 62°14' W 006°48'0 0.0
2014-Jul-26 17:32N 62°14' W 006°48'0 0.0
2014-Jul-26 16:32N 62°14' W 006°48'0 0.0
2014-Jul-26 15:32N 62°14' W 006°48'0 0.0
2014-Jul-26 14:32N 62°14' W 006°48'0 0.0
2014-Jul-26 13:32N 62°14' W 006°48'0 0.1
2014-Jul-26 10:15N 62°14' W 006°49'0 0.0
2014-Jul-26 09:09N 62°14' W 006°49'0 0.0
2014-Jul-26 08:27N 62°14' W 006°49'0 0.0
2014-Jul-26 05:09N 62°14' W 006°49'0 0.0
2014-Jul-26 00:27N 62°14' W 006°49'0 0.0
2014-Jul-25 23:33N 62°14' W 006°49'1 0.6
2014-Jul-25 22:27N 62°14' W 006°48'5 6.0
2014-Jul-25 21:33N 62°11' W 006°38'7 7.4
2014-Jul-25 20:33N 62°04' W 006°39'4 3.2
2014-Jul-25 19:27N 62°07' W 006°44'1 0.9
2014-Jul-25 18:33N 62°06' W 006°45'5 4.5
2014-Jul-25 17:33N 62°07' W 006°36'4 1.6
2014-Jul-25 15:24N 62°10' W 006°32'5 5.6
2014-Jul-25 14:31N 62°08' W 006°41'0 0.0
2014-Jul-25 13:31N 62°08' W 006°41'3 3.7
2014-Jul-25 12:33N 62°05' W 006°38'8 8.0
2014-Jul-25 11:34N 61°57' W 006°42'7 6.7
2014-Jul-25 10:27N 62°00' W 006°57'20 4.0
2014-Jul-25 05:23N 62°20' W 006°54'8 9.0
2014-Jul-25 04:33N 62°14' W 006°47'1 0.8
2014-Jul-25 03:32N 62°14' W 006°48'0 0.0
2014-Jul-25 02:32N 62°14' W 006°48'0 0.0
2014-Jul-25 01:26N 62°14' W 006°48'0 0.0
2014-Jul-25 00:32N 62°14' W 006°48'0 0.0
2014-Jul-24 23:32N 62°14' W 006°48'0 0.0
2014-Jul-24 22:32N 62°14' W 006°48'0 0.0
2014-Jul-24 21:32N 62°14' W 006°48'0 0.0
2014-Jul-24 20:32N 62°14' W 006°48'0 0.0
2014-Jul-24 19:32N 62°14' W 006°48'0 0.0
2014-Jul-24 18:32N 62°14' W 006°48'0 0.0
2014-Jul-24 17:32N 62°14' W 006°48'0 0.0
2014-Jul-24 16:32N 62°14' W 006°48'0 0.0
2014-Jul-24 15:32N 62°14' W 006°48'0 0.0
2014-Jul-24 14:32N 62°14' W 006°48'0 0.0
2014-Jul-24 13:26N 62°14' W 006°48'8 6.4
2014-Jul-24 12:11N 62°10' W 006°33'4 0.6
2014-Jul-24 06:07N 62°11' W 006°26'4 7.3
2014-Jul-24 05:33N 62°11' W 006°35'7 7.0
2014-Jul-24 04:33N 62°14' W 006°48'0 0.0
2014-Jul-24 03:33N 62°14' W 006°48'0 0.0
2014-Jul-24 02:33N 62°14' W 006°48'0 0.0
2014-Jul-24 01:33N 62°14' W 006°48'0 0.0
2014-Jul-24 00:33N 62°14' W 006°48'0 0.0
2014-Jul-23 23:33N 62°14' W 006°48'0 0.0
2014-Jul-23 22:33N 62°14' W 006°48'0 0.0
2014-Jul-23 21:33N 62°14' W 006°48'0 0.0
2014-Jul-23 20:30N 62°14' W 006°48'0 0.0
2014-Jul-23 19:30N 62°14' W 006°48'0 0.0
2014-Jul-23 18:33N 62°14' W 006°48'0 0.0
2014-Jul-23 17:33N 62°14' W 006°48'0 0.0
2014-Jul-23 16:33N 62°14' W 006°48'0 0.3
2014-Jul-23 15:33N 62°14' W 006°48'5 2.7
2014-Jul-23 13:33N 62°12' W 006°37'9 8.7
2014-Jul-23 12:33N 62°03' W 006°39'5 4.9
2014-Jul-23 11:32N 61°59' W 006°45'0 0.0
2014-Jul-23 10:32N 61°59' W 006°45'8 7.8
2014-Jul-23 09:33N 62°06' W 006°37'5 4.7
2014-Jul-23 08:23N 62°10' W 006°43'0 0.0
2014-Jul-23 07:29N 62°10' W 006°43'1 1.3
2014-Jul-23 06:33N 62°10' W 006°40'5 5.3
2014-Jul-23 05:31N 62°14' W 006°48'0 0.0
2014-Jul-23 04:31N 62°14' W 006°48'0 0.0
2014-Jul-23 03:31N 62°14' W 006°48'0 0.0
2014-Jul-23 02:31N 62°14' W 006°48'0 0.0
2014-Jul-23 01:31N 62°14' W 006°48'0 0.0
2014-Jul-23 00:31N 62°14' W 006°48'0 0.0
2014-Jul-22 23:31N 62°14' W 006°48'0 0.0
2014-Jul-22 22:31N 62°14' W 006°48'0 0.0
2014-Jul-22 21:25N 62°14' W 006°48'0 0.0
2014-Jul-22 20:31N 62°14' W 006°48'0 0.0
2014-Jul-22 19:31N 62°14' W 006°48'0 0.0
2014-Jul-22 18:31N 62°14' W 006°48'0 0.0
2014-Jul-22 17:31N 62°14' W 006°48'0 0.0
2014-Jul-22 16:31N 62°14' W 006°48'0 0.0
2014-Jul-22 15:31N 62°14' W 006°48'0 0.0
2014-Jul-22 14:31N 62°14' W 006°48'0 0.0
2014-Jul-22 13:31N 62°14' W 006°48'0 0.0
2014-Jul-22 12:31N 62°14' W 006°48'6 4.8
2014-Jul-22 11:11N 62°11' W 006°37'3 4.7
2014-Jul-22 10:33N 62°08' W 006°41'0 0.4
2014-Jul-22 09:31N 62°08' W 006°41'5 4.8
2014-Jul-22 08:33N 62°10' W 006°32'9 2.1
2014-Jul-22 04:31N 62°14' W 006°48'0 0.0
2014-Jul-22 03:31N 62°14' W 006°48'0 0.0
2014-Jul-22 02:31N 62°14' W 006°48'0 0.0
2014-Jul-22 01:31N 62°14' W 006°48'0 0.0
2014-Jul-22 00:31N 62°14' W 006°48'0 0.0
2014-Jul-21 23:31N 62°14' W 006°48'0 0.0
2014-Jul-21 22:31N 62°14' W 006°48'0 0.0
2014-Jul-21 21:28N 62°14' W 006°48'0 0.0
2014-Jul-21 20:31N 62°14' W 006°48'0 0.0
2014-Jul-21 20:16N 62°14' W 006°48'0 0.0
2014-Jul-21 19:31N 62°14' W 006°48'0 0.0
2014-Jul-21 18:31N 62°14' W 006°48'0 0.0
2014-Jul-21 17:31N 62°14' W 006°48'0 0.0
2014-Jul-21 16:31N 62°14' W 006°48'0 0.0
2014-Jul-21 15:31N 62°14' W 006°48'0 0.0
2014-Jul-21 14:31N 62°14' W 006°48'0 0.0
2014-Jul-21 13:31N 62°14' W 006°48'0 0.0
2014-Jul-21 12:31N 62°14' W 006°48'1 0.7
2014-Jul-21 11:31N 62°13' W 006°48'3 2.7
2014-Jul-21 10:30N 62°16' W 006°48'0 0.0
2014-Jul-21 06:10N 62°16' W 006°48'2 3.1
2014-Jul-21 05:31N 62°14' W 006°48'0 0.0
2014-Jul-21 04:31N 62°14' W 006°48'0 0.0
2014-Jul-21 03:31N 62°14' W 006°48'0 0.0
2014-Jul-21 02:31N 62°14' W 006°48'0 0.0
2014-Jul-21 01:31N 62°14' W 006°48'0 0.0
2014-Jul-21 00:28N 62°14' W 006°48'0 0.0
2014-Jul-20 23:31N 62°14' W 006°48'0 0.0
2014-Jul-20 22:31N 62°14' W 006°48'0 0.0
2014-Jul-20 21:31N 62°14' W 006°48'0 0.0
2014-Jul-20 20:19N 62°14' W 006°48'0 0.0
2014-Jul-20 19:28N 62°14' W 006°48'0 0.0
2014-Jul-20 18:28N 62°14' W 006°48'0 0.0
2014-Jul-20 17:31N 62°14' W 006°48'0 0.0
2014-Jul-20 16:31N 62°14' W 006°48'0 0.0
2014-Jul-20 15:31N 62°14' W 006°48'0 0.0
2014-Jul-20 14:31N 62°14' W 006°48'0 0.0
2014-Jul-20 13:31N 62°14' W 006°48'0 0.0
2014-Jul-20 12:31N 62°14' W 006°48'0 0.0
2014-Jul-20 11:28N 62°14' W 006°48'0 0.0
2014-Jul-20 10:31N 62°14' W 006°48'0 0.0
2014-Jul-20 09:31N 62°14' W 006°48'0 0.0
2014-Jul-20 08:31N 62°14' W 006°48'0 0.0
2014-Jul-20 07:31N 62°14' W 006°48'0 0.0
2014-Jul-20 06:31N 62°14' W 006°48'0 0.0
2014-Jul-20 05:31N 62°14' W 006°48'0 0.0
2014-Jul-20 04:31N 62°14' W 006°48'0 0.0
2014-Jul-20 03:31N 62°14' W 006°48'0 0.0
2014-Jul-20 02:31N 62°14' W 006°48'0 0.0
2014-Jul-20 01:31N 62°14' W 006°48'0 0.0
2014-Jul-20 00:31N 62°14' W 006°48'0 0.0
2014-Jul-19 23:31N 62°14' W 006°48'0 0.0
2014-Jul-19 22:31N 62°14' W 006°48'0 0.0
2014-Jul-19 21:31N 62°14' W 006°48'0 0.0
2014-Jul-19 20:31N 62°14' W 006°48'0 0.0
2014-Jul-19 19:28N 62°14' W 006°48'0 0.0
2014-Jul-19 18:31N 62°14' W 006°48'0 0.0
2014-Jul-19 17:31N 62°14' W 006°48'0 0.0
2014-Jul-19 16:31N 62°14' W 006°48'0 0.0
2014-Jul-19 15:31N 62°14' W 006°48'0 0.0
2014-Jul-19 14:31N 62°14' W 006°48'0 0.1
2014-Jul-19 13:29N 62°14' W 006°48'0 0.0
2014-Jul-19 12:29N 62°14' W 006°48'0 0.0
2014-Jul-19 11:32N 62°14' W 006°48'0 0.0
2014-Jul-19 10:32N 62°14' W 006°48'0 0.0
2014-Jul-19 09:29N 62°14' W 006°48'0 0.0
2014-Jul-19 08:32N 62°14' W 006°48'0 0.0
2014-Jul-19 07:32N 62°14' W 006°48'0 0.0
2014-Jul-19 06:32N 62°14' W 006°48'0 0.0
2014-Jul-19 05:32N 62°14' W 006°48'0 0.0
2014-Jul-19 04:29N 62°14' W 006°48'0 0.0
2014-Jul-19 03:23N 62°14' W 006°48'0 0.0
2014-Jul-19 02:26N 62°14' W 006°48'0 0.0
2014-Jul-19 01:23N 62°14' W 006°48'0 0.0
2014-Jul-19 00:29N 62°14' W 006°48'0 0.0
2014-Jul-18 23:29N 62°14' W 006°48'0 0.0
2014-Jul-18 22:32N 62°14' W 006°48'0 0.0
2014-Jul-18 21:29N 62°14' W 006°48'0 0.0
2014-Jul-18 20:29N 62°14' W 006°48'0 0.0
2014-Jul-18 19:29N 62°14' W 006°48'0 0.0
2014-Jul-18 18:29N 62°14' W 006°48'0 0.0
2014-Jul-18 17:29N 62°14' W 006°48'0 0.0
2014-Jul-18 16:29N 62°14' W 006°48'0 0.1
2014-Jul-18 15:11N 62°14' W 006°48'0 0.1
2014-Jul-18 14:23N 62°14' W 006°48'0 0.0
2014-Jul-18 13:29N 62°14' W 006°48'  
Track history (hours):
 
Tides and Currents Weather Stations Pressure Air Temp Water Temp Dewpoint Dewpoint Depression Visibility Wind Speed Wind Dir Waves Ship Positions

Hav Tind

Last reported at 2014-Jul-28 11:23 UTC. Time now 2014-Jul-28 12:26 UTC.
Position N 62°14' W 006°48'.

Length 60 m; draft 4 m.

Type: Cargo ship. MMSI: 231565000.

Date/timePositionNaut miles runAvg speedWind from/ knotsBaromVisibWave heightAir tempDewpointWater temp
2014-Jul-28 11:23N 62°14' W 006°48'0 0.0
2014-Jul-28 10:32N 62°14' W 006°48'0 0.0
2014-Jul-28 09:32N 62°14' W 006°48'0 0.0
2014-Jul-28 08:29N 62°14' W 006°48'0 0.0
2014-Jul-28 07:32N 62°14' W 006°48'0 0.0
2014-Jul-28 06:32N 62°14' W 006°48'0 0.0
2014-Jul-28 05:32N 62°14' W 006°48'0 0.0
2014-Jul-28 04:32N 62°14' W 006°48'0 0.0
2014-Jul-28 03:32N 62°14' W 006°48'0 0.0
2014-Jul-28 02:29N 62°14' W 006°48'0 0.0
2014-Jul-28 01:32N 62°14' W 006°48'0 0.0
2014-Jul-28 00:32N 62°14' W 006°48'0 0.0
2014-Jul-27 23:11N 62°14' W 006°48'0 0.0
2014-Jul-27 22:32N 62°14' W 006°48'0 0.0
2014-Jul-27 21:32N 62°14' W 006°48'0 0.0
2014-Jul-27 20:32N 62°14' W 006°48'0 0.0
2014-Jul-27 19:32N 62°14' W 006°48'0 0.0
2014-Jul-27 18:32N 62°14' W 006°48'0 0.0
2014-Jul-27 17:32N 62°14' W 006°48'0 0.0
2014-Jul-27 16:32N 62°14' W 006°48'0 0.0
2014-Jul-27 15:32N 62°14' W 006°48'0 0.0
2014-Jul-27 14:32N 62°14' W 006°48'0 0.0
2014-Jul-27 13:32N 62°14' W 006°48'0 0.0
2014-Jul-27 12:32N 62°14' W 006°48'0 0.0
2014-Jul-27 11:32N 62°14' W 006°48'0 0.0
2014-Jul-27 10:32N 62°14' W 006°48'0 0.0
2014-Jul-27 09:32N 62°14' W 006°48'0 0.0
2014-Jul-27 08:32N 62°14' W 006°48'0 0.0
2014-Jul-27 07:32N 62°14' W 006°48'0 0.0
2014-Jul-27 06:32N 62°14' W 006°48'0 0.0
2014-Jul-27 05:32N 62°14' W 006°48'0 0.0
2014-Jul-27 04:32N 62°14' W 006°48'0 0.0
2014-Jul-27 03:29N 62°14' W 006°48'0 0.0
2014-Jul-27 02:32N 62°14' W 006°48'0 0.0
2014-Jul-27 01:32N 62°14' W 006°48'0 0.0
2014-Jul-27 00:32N 62°14' W 006°48'0 0.0
2014-Jul-26 23:32N 62°14' W 006°48'0 0.0
2014-Jul-26 22:32N 62°14' W 006°48'0 0.0
2014-Jul-26 21:29N 62°14' W 006°48'0 0.0
2014-Jul-26 20:32N 62°14' W 006°48'0 0.0
2014-Jul-26 19:32N 62°14' W 006°48'0 0.0
2014-Jul-26 18:32N 62°14' W 006°48'0 0.0
2014-Jul-26 17:32N 62°14' W 006°48'0 0.0
2014-Jul-26 16:32N 62°14' W 006°48'0 0.0
2014-Jul-26 15:32N 62°14' W 006°48'0 0.0
2014-Jul-26 14:32N 62°14' W 006°48'0 0.0
2014-Jul-26 13:32N 62°14' W 006°48'0 0.1
2014-Jul-26 10:15N 62°14' W 006°49'0 0.0
2014-Jul-26 09:09N 62°14' W 006°49'0 0.0
2014-Jul-26 08:27N 62°14' W 006°49'0 0.0
2014-Jul-26 05:09N 62°14' W 006°49'0 0.0
2014-Jul-26 00:27N 62°14' W 006°49'0 0.0
2014-Jul-25 23:33N 62°14' W 006°49'1 0.6
2014-Jul-25 22:27N 62°14' W 006°48'5 6.0
2014-Jul-25 21:33N 62°11' W 006°38'7 7.4
2014-Jul-25 20:33N 62°04' W 006°39'4 3.2
2014-Jul-25 19:27N 62°07' W 006°44'1 0.9
2014-Jul-25 18:33N 62°06' W 006°45'5 4.5
2014-Jul-25 17:33N 62°07' W 006°36'4 1.6
2014-Jul-25 15:24N 62°10' W 006°32'5 5.6
2014-Jul-25 14:31N 62°08' W 006°41'0 0.0
2014-Jul-25 13:31N 62°08' W 006°41'3 3.7
2014-Jul-25 12:33N 62°05' W 006°38'8 8.0
2014-Jul-25 11:34N 61°57' W 006°42'7 6.7
2014-Jul-25 10:27N 62°00' W 006°57'20 4.0
2014-Jul-25 05:23N 62°20' W 006°54'8 9.0
2014-Jul-25 04:33N 62°14' W 006°47'1 0.8
2014-Jul-25 03:32N 62°14' W 006°48'0 0.0
2014-Jul-25 02:32N 62°14' W 006°48'0 0.0
2014-Jul-25 01:26N 62°14' W 006°48'0 0.0
2014-Jul-25 00:32N 62°14' W 006°48'0 0.0
2014-Jul-24 23:32N 62°14' W 006°48'0 0.0
2014-Jul-24 22:32N 62°14' W 006°48'0 0.0
2014-Jul-24 21:32N 62°14' W 006°48'0 0.0
2014-Jul-24 20:32N 62°14' W 006°48'0 0.0
2014-Jul-24 19:32N 62°14' W 006°48'0 0.0
2014-Jul-24 18:32N 62°14' W 006°48'0 0.0
2014-Jul-24 17:32N 62°14' W 006°48'0 0.0
2014-Jul-24 16:32N 62°14' W 006°48'0 0.0
2014-Jul-24 15:32N 62°14' W 006°48'0 0.0
2014-Jul-24 14:32N 62°14' W 006°48'0 0.0
2014-Jul-24 13:26N 62°14' W 006°48'8 6.4
2014-Jul-24 12:11N 62°10' W 006°33'4 0.6
2014-Jul-24 06:07N 62°11' W 006°26'4 7.3
2014-Jul-24 05:33N 62°11' W 006°35'7 7.0
2014-Jul-24 04:33N 62°14' W 006°48'0 0.0
2014-Jul-24 03:33N 62°14' W 006°48'0 0.0
2014-Jul-24 02:33N 62°14' W 006°48'0 0.0
2014-Jul-24 01:33N 62°14' W 006°48'0 0.0
2014-Jul-24 00:33N 62°14' W 006°48'0 0.0
2014-Jul-23 23:33N 62°14' W 006°48'0 0.0
2014-Jul-23 22:33N 62°14' W 006°48'0 0.0
2014-Jul-23 21:33N 62°14' W 006°48'0 0.0
2014-Jul-23 20:30N 62°14' W 006°48'0 0.0
2014-Jul-23 19:30N 62°14' W 006°48'0 0.0
2014-Jul-23 18:33N 62°14' W 006°48'0 0.0
2014-Jul-23 17:33N 62°14' W 006°48'0 0.0
2014-Jul-23 16:33N 62°14' W 006°48'0 0.3
2014-Jul-23 15:33N 62°14' W 006°48'5 2.7
2014-Jul-23 13:33N 62°12' W 006°37'9 8.7
2014-Jul-23 12:33N 62°03' W 006°39'5 4.9
2014-Jul-23 11:32N 61°59' W 006°45'0 0.0
2014-Jul-23 10:32N 61°59' W 006°45'8 7.8
2014-Jul-23 09:33N 62°06' W 006°37'5 4.7
2014-Jul-23 08:23N 62°10' W 006°43'0 0.0
2014-Jul-23 07:29N 62°10' W 006°43'1 1.3
2014-Jul-23 06:33N 62°10' W 006°40'5 5.3
2014-Jul-23 05:31N 62°14' W 006°48'0 0.0
2014-Jul-23 04:31N 62°14' W 006°48'0 0.0
2014-Jul-23 03:31N 62°14' W 006°48'0 0.0
2014-Jul-23 02:31N 62°14' W 006°48'0 0.0
2014-Jul-23 01:31N 62°14' W 006°48'0 0.0
2014-Jul-23 00:31N 62°14' W 006°48'0 0.0
2014-Jul-22 23:31N 62°14' W 006°48'0 0.0
2014-Jul-22 22:31N 62°14' W 006°48'0 0.0
2014-Jul-22 21:25N 62°14' W 006°48'0 0.0
2014-Jul-22 20:31N 62°14' W 006°48'0 0.0
2014-Jul-22 19:31N 62°14' W 006°48'0 0.0
2014-Jul-22 18:31N 62°14' W 006°48'0 0.0
2014-Jul-22 17:31N 62°14' W 006°48'0 0.0
2014-Jul-22 16:31N 62°14' W 006°48'0 0.0
2014-Jul-22 15:31N 62°14' W 006°48'0 0.0
2014-Jul-22 14:31N 62°14' W 006°48'0 0.0
2014-Jul-22 13:31N 62°14' W 006°48'0 0.0
2014-Jul-22 12:31N 62°14' W 006°48'6 4.8
2014-Jul-22 11:11N 62°11' W 006°37'3 4.7
2014-Jul-22 10:33N 62°08' W 006°41'0 0.4
2014-Jul-22 09:31N 62°08' W 006°41'5 4.8
2014-Jul-22 08:33N 62°10' W 006°32'9 2.1
2014-Jul-22 04:31N 62°14' W 006°48'0 0.0
2014-Jul-22 03:31N 62°14' W 006°48'0 0.0
2014-Jul-22 02:31N 62°14' W 006°48'0 0.0
2014-Jul-22 01:31N 62°14' W 006°48'0 0.0
2014-Jul-22 00:31N 62°14' W 006°48'0 0.0
2014-Jul-21 23:31N 62°14' W 006°48'0 0.0
2014-Jul-21 22:31N 62°14' W 006°48'0 0.0
2014-Jul-21 21:28N 62°14' W 006°48'0 0.0
2014-Jul-21 20:31N 62°14' W 006°48'0 0.0
2014-Jul-21 20:16N 62°14' W 006°48'0 0.0
2014-Jul-21 19:31N 62°14' W 006°48'0 0.0
2014-Jul-21 18:31N 62°14' W 006°48'0 0.0
2014-Jul-21 17:31N 62°14' W 006°48'0 0.0
2014-Jul-21 16:31N 62°14' W 006°48'0 0.0
2014-Jul-21 15:31N 62°14' W 006°48'0 0.0
2014-Jul-21 14:31N 62°14' W 006°48'0 0.0
2014-Jul-21 13:31N 62°14' W 006°48'0 0.0
2014-Jul-21 12:31N 62°14' W 006°48'1 0.7
2014-Jul-21 11:31N 62°13' W 006°48'3 2.7
2014-Jul-21 10:30N 62°16' W 006°48'0 0.0
2014-Jul-21 06:10N 62°16' W 006°48'2 3.1
2014-Jul-21 05:31N 62°14' W 006°48'0 0.0
2014-Jul-21 04:31N 62°14' W 006°48'0 0.0
2014-Jul-21 03:31N 62°14' W 006°48'0 0.0
2014-Jul-21 02:31N 62°14' W 006°48'0 0.0
2014-Jul-21 01:31N 62°14' W 006°48'0 0.0
2014-Jul-21 00:28N 62°14' W 006°48'0 0.0
2014-Jul-20 23:31N 62°14' W 006°48'0 0.0
2014-Jul-20 22:31N 62°14' W 006°48'0 0.0
2014-Jul-20 21:31N 62°14' W 006°48'0 0.0
2014-Jul-20 20:19N 62°14' W 006°48'0 0.0
2014-Jul-20 19:28N 62°14' W 006°48'0 0.0
2014-Jul-20 18:28N 62°14' W 006°48'0 0.0
2014-Jul-20 17:31N 62°14' W 006°48'0 0.0
2014-Jul-20 16:31N 62°14' W 006°48'0 0.0
2014-Jul-20 15:31N 62°14' W 006°48'0 0.0
2014-Jul-20 14:31N 62°14' W 006°48'0 0.0
2014-Jul-20 13:31N 62°14' W 006°48'0 0.0
2014-Jul-20 12:31N 62°14' W 006°48'0 0.0
2014-Jul-20 11:28N 62°14' W 006°48'0 0.0
2014-Jul-20 10:31N 62°14' W 006°48'0 0.0
2014-Jul-20 09:31N 62°14' W 006°48'0 0.0
2014-Jul-20 08:31N 62°14' W 006°48'0 0.0
2014-Jul-20 07:31N 62°14' W 006°48'0 0.0
2014-Jul-20 06:31N 62°14' W 006°48'0 0.0
2014-Jul-20 05:31N 62°14' W 006°48'0 0.0
2014-Jul-20 04:31N 62°14' W 006°48'0 0.0
2014-Jul-20 03:31N 62°14' W 006°48'0 0.0
2014-Jul-20 02:31N 62°14' W 006°48'0 0.0
2014-Jul-20 01:31N 62°14' W 006°48'0 0.0
2014-Jul-20 00:31N 62°14' W 006°48'0 0.0
2014-Jul-19 23:31N 62°14' W 006°48'0 0.0
2014-Jul-19 22:31N 62°14' W 006°48'0 0.0
2014-Jul-19 21:31N 62°14' W 006°48'0 0.0
2014-Jul-19 20:31N 62°14' W 006°48'0 0.0
2014-Jul-19 19:28N 62°14' W 006°48'0 0.0
2014-Jul-19 18:31N 62°14' W 006°48'0 0.0
2014-Jul-19 17:31N 62°14' W 006°48'0 0.0
2014-Jul-19 16:31N 62°14' W 006°48'0 0.0
2014-Jul-19 15:31N 62°14' W 006°48'0 0.0
2014-Jul-19 14:31N 62°14' W 006°48'0 0.1
2014-Jul-19 13:29N 62°14' W 006°48'0 0.0
2014-Jul-19 12:29N 62°14' W 006°48'0 0.0
2014-Jul-19 11:32N 62°14' W 006°48'0 0.0
2014-Jul-19 10:32N 62°14' W 006°48'0 0.0
2014-Jul-19 09:29N 62°14' W 006°48'0 0.0
2014-Jul-19 08:32N 62°14' W 006°48'0 0.0
2014-Jul-19 07:32N 62°14' W 006°48'0 0.0
2014-Jul-19 06:32N 62°14' W 006°48'0 0.0
2014-Jul-19 05:32N 62°14' W 006°48'0 0.0
2014-Jul-19 04:29N 62°14' W 006°48'0 0.0
2014-Jul-19 03:23N 62°14' W 006°48'0 0.0
2014-Jul-19 02:26N 62°14' W 006°48'0 0.0
2014-Jul-19 01:23N 62°14' W 006°48'0 0.0
2014-Jul-19 00:29N 62°14' W 006°48'0 0.0
2014-Jul-18 23:29N 62°14' W 006°48'0 0.0
2014-Jul-18 22:32N 62°14' W 006°48'0 0.0
2014-Jul-18 21:29N 62°14' W 006°48'0 0.0
2014-Jul-18 20:29N 62°14' W 006°48'0 0.0
2014-Jul-18 19:29N 62°14' W 006°48'0 0.0
2014-Jul-18 18:29N 62°14' W 006°48'0 0.0
2014-Jul-18 17:29N 62°14' W 006°48'0 0.0
2014-Jul-18 16:29N 62°14' W 006°48'0 0.1
2014-Jul-18 15:11N 62°14' W 006°48'0 0.1
2014-Jul-18 14:23N 62°14' W 006°48'0 0.0
2014-Jul-18 13:29N 62°14' W 006°48'  

Dump ship's entire track history